createdAt,value
2023-05-03T00:00:08.909Z,11.20
2023-05-03T00:02:39.129Z,11.00
2023-05-03T00:05:12.175Z,10.90
2023-05-03T00:07:40.204Z,10.70
2023-05-03T00:10:08.278Z,10.60
2023-05-03T00:12:34.984Z,10.60
2023-05-03T00:15:01.593Z,10.60
2023-05-03T00:17:28.258Z,10.50
2023-05-03T00:19:56.242Z,10.50
2023-05-03T00:22:23.281Z,10.60
2023-05-03T00:24:51.115Z,10.60
2023-05-03T00:27:18.608Z,10.60
2023-05-03T00:29:45.834Z,10.50
2023-05-03T00:32:12.802Z,10.40
2023-05-03T00:34:39.420Z,10.50
2023-05-03T00:37:06.010Z,10.30
2023-05-03T00:39:32.822Z,10.30
2023-05-03T00:42:01.765Z,10.30
2023-05-03T00:44:28.337Z,10.30
2023-05-03T00:46:55.977Z,10.30
2023-05-03T00:49:25.059Z,10.20
2023-05-03T00:51:53.488Z,10.30
2023-05-03T00:54:20.764Z,10.20
2023-05-03T00:56:51.576Z,10.30
2023-05-03T00:59:20.135Z,10.20
2023-05-03T01:01:51.815Z,10.20
2023-05-03T01:04:20.125Z,10.10
2023-05-03T01:07:14.950Z,10.20
2023-05-03T01:09:53.517Z,10.10
2023-05-03T01:12:53.223Z,10.10
2023-05-03T01:15:34.947Z,10.00
2023-05-03T01:18:12.203Z,10.00
2023-05-03T01:20:43.512Z,10.00
2023-05-03T01:23:30.124Z,10.00
2023-05-03T01:25:57.374Z,9.90
2023-05-03T01:28:23.995Z,9.90
2023-05-03T01:30:53.404Z,9.90
2023-05-03T01:33:38.683Z,9.90
2023-05-03T01:36:12.940Z,9.90
2023-05-03T01:38:39.844Z,9.70
2023-05-03T01:41:09.529Z,9.80
2023-05-03T01:43:37.936Z,9.80
2023-05-03T01:46:04.696Z,9.70
2023-05-03T01:48:31.440Z,9.80
2023-05-03T01:50:58.080Z,9.80
2023-05-03T01:53:24.763Z,9.80
2023-05-03T01:55:51.373Z,9.70
2023-05-03T01:58:17.976Z,9.60
2023-05-03T02:00:46.376Z,9.60
2023-05-03T02:03:13.128Z,9.60
2023-05-03T02:05:40.084Z,9.50
2023-05-03T02:08:06.742Z,9.40
2023-05-03T02:10:33.403Z,9.40
2023-05-03T02:13:00.430Z,9.40
2023-05-03T02:15:27.065Z,9.40
2023-05-03T02:17:54.237Z,9.40
2023-05-03T02:20:21.172Z,9.40
2023-05-03T02:22:47.744Z,9.30
2023-05-03T02:25:14.320Z,9.30
2023-05-03T02:27:41.259Z,9.30
2023-05-03T02:30:08.749Z,9.20
2023-05-03T02:32:35.927Z,9.20
2023-05-03T02:35:03.053Z,9.10
2023-05-03T02:37:29.686Z,9.10
2023-05-03T02:39:56.289Z,8.90
2023-05-03T02:42:22.838Z,8.90
2023-05-03T02:44:49.389Z,8.90
2023-05-03T02:47:16.165Z,9.00
2023-05-03T02:49:42.792Z,9.00
2023-05-03T02:52:09.401Z,9.00
2023-05-03T02:54:36.155Z,9.00
2023-05-03T02:57:03.166Z,9.00
2023-05-03T02:59:29.746Z,9.20
2023-05-03T03:01:56.334Z,9.00
2023-05-03T03:04:22.915Z,9.00
2023-05-03T03:06:49.925Z,9.00
2023-05-03T03:09:16.607Z,8.90
2023-05-03T03:11:43.204Z,8.80
2023-05-03T03:14:09.904Z,8.80
2023-05-03T03:16:36.620Z,8.80
2023-05-03T03:19:03.254Z,8.80
2023-05-03T03:21:29.928Z,8.90
2023-05-03T03:23:56.793Z,8.90
2023-05-03T03:26:23.474Z,8.90
2023-05-03T03:28:50.170Z,8.90
2023-05-03T03:31:18.104Z,8.80
2023-05-03T03:33:44.815Z,8.90
2023-05-03T03:36:11.453Z,8.90
2023-05-03T03:38:38.075Z,8.90
2023-05-03T03:41:04.694Z,8.90
2023-05-03T03:43:31.317Z,8.90
2023-05-03T03:45:57.940Z,8.80
2023-05-03T03:48:24.878Z,8.80
2023-05-03T03:50:51.591Z,8.70
2023-05-03T03:53:18.241Z,8.70
2023-05-03T03:55:44.995Z,8.70
2023-05-03T03:58:11.587Z,8.70
2023-05-03T04:00:38.560Z,8.70
2023-05-03T04:03:07.817Z,8.70
2023-05-03T04:05:34.789Z,8.70
2023-05-03T04:08:01.467Z,8.70
2023-05-03T04:10:28.121Z,8.70
2023-05-03T04:12:55.533Z,8.70
2023-05-03T04:15:22.226Z,8.60
2023-05-03T04:17:49.454Z,8.60
2023-05-03T04:20:17.727Z,8.60
2023-05-03T04:22:44.438Z,8.50
2023-05-03T04:25:19.748Z,8.50
2023-05-03T04:27:46.892Z,8.40
2023-05-03T04:30:15.362Z,8.40
2023-05-03T04:32:43.422Z,8.40
2023-05-03T04:35:12.373Z,8.30
2023-05-03T04:37:40.397Z,8.30
2023-05-03T04:40:09.295Z,8.30
2023-05-03T04:42:36.473Z,8.30
2023-05-03T04:45:04.217Z,8.30
2023-05-03T04:47:30.971Z,8.30
2023-05-03T04:49:57.687Z,8.40
2023-05-03T04:52:25.371Z,8.30
2023-05-03T04:54:52.401Z,8.30
2023-05-03T04:57:19.195Z,8.20
2023-05-03T04:59:46.024Z,8.30
2023-05-03T05:02:12.681Z,8.30
2023-05-03T05:04:39.502Z,8.30
2023-05-03T05:07:06.150Z,8.40
2023-05-03T05:09:32.794Z,8.30
2023-05-03T05:11:59.496Z,8.40
2023-05-03T05:14:30.805Z,8.40
2023-05-03T05:16:57.931Z,8.40
2023-05-03T05:19:24.627Z,8.50
2023-05-03T05:21:52.101Z,8.60
2023-05-03T05:24:18.788Z,8.60
2023-05-03T05:26:45.822Z,8.60
2023-05-03T05:29:12.751Z,8.70
2023-05-03T05:31:39.777Z,8.80
2023-05-03T05:34:06.586Z,9.00
2023-05-03T05:36:33.422Z,9.10
2023-05-03T05:39:00.284Z,9.20
2023-05-03T05:41:26.900Z,9.30
2023-05-03T05:43:53.558Z,9.40
2023-05-03T05:46:23.165Z,9.50
2023-05-03T05:48:51.232Z,9.50
2023-05-03T05:51:17.879Z,9.60
2023-05-03T05:53:44.595Z,9.70
2023-05-03T05:56:11.604Z,9.70
2023-05-03T05:58:38.695Z,9.80
2023-05-03T06:01:05.463Z,9.80
2023-05-03T06:03:34.115Z,9.90
2023-05-03T06:06:00.982Z,10.00
2023-05-03T06:08:27.981Z,10.10
2023-05-03T06:10:54.673Z,10.20
2023-05-03T06:13:22.454Z,10.20
2023-05-03T06:15:49.102Z,10.30
2023-05-03T06:18:15.927Z,10.30
2023-05-03T06:20:42.619Z,10.40
2023-05-03T06:23:09.217Z,10.40
2023-05-03T06:25:38.859Z,10.50
2023-05-03T06:28:05.540Z,10.60
2023-05-03T06:30:32.297Z,10.70
2023-05-03T06:32:58.933Z,10.80
2023-05-03T06:35:26.037Z,10.90
2023-05-03T06:37:52.641Z,10.90
2023-05-03T06:40:19.327Z,11.00
2023-05-03T06:42:46.238Z,11.10
2023-05-03T06:45:12.901Z,11.10
2023-05-03T06:47:42.453Z,11.20
2023-05-03T06:50:09.981Z,11.30
2023-05-03T06:52:36.606Z,11.30
2023-05-03T06:55:04.736Z,11.40
2023-05-03T06:57:31.492Z,11.50
2023-05-03T06:59:58.160Z,11.60
2023-05-03T07:02:26.707Z,11.60
2023-05-03T07:04:53.501Z,11.70
2023-05-03T07:07:20.344Z,11.80
2023-05-03T07:09:47.105Z,11.80
2023-05-03T07:12:13.724Z,11.80
2023-05-03T07:14:40.626Z,11.90
2023-05-03T07:17:07.447Z,11.90
2023-05-03T07:19:34.158Z,11.90
2023-05-03T07:22:03.029Z,12.10
2023-05-03T07:24:29.775Z,12.00
2023-05-03T07:26:58.173Z,12.10
2023-05-03T07:29:24.786Z,12.10
2023-05-03T07:31:53.355Z,12.20
2023-05-03T07:34:20.470Z,12.20
2023-05-03T07:36:47.094Z,12.20
2023-05-03T07:39:13.632Z,12.20
2023-05-03T07:41:40.399Z,12.20
2023-05-03T07:44:07.610Z,12.20
2023-05-03T07:46:35.354Z,12.30
2023-05-03T07:49:04.440Z,12.30
2023-05-03T07:51:36.072Z,12.30
2023-05-03T07:54:02.979Z,12.40
2023-05-03T07:56:29.734Z,12.40
2023-05-03T07:59:08.570Z,12.40
2023-05-03T08:01:36.550Z,12.40
2023-05-03T08:04:03.480Z,12.40
2023-05-03T08:06:31.706Z,12.50
2023-05-03T08:08:58.730Z,12.50
2023-05-03T08:11:27.414Z,12.70
2023-05-03T08:13:54.124Z,12.60
2023-05-03T08:16:21.359Z,12.60
2023-05-03T08:18:48.172Z,12.70
2023-05-03T08:21:15.172Z,12.70
2023-05-03T08:23:42.361Z,12.60
2023-05-03T08:26:10.871Z,12.60
2023-05-03T08:28:37.913Z,12.70
2023-05-03T08:31:04.960Z,12.70
2023-05-03T08:33:31.831Z,12.80
2023-05-03T08:35:58.546Z,12.90
2023-05-03T08:38:25.517Z,13.00
2023-05-03T08:40:55.216Z,13.00
2023-05-03T08:43:23.849Z,13.10
2023-05-03T08:45:51.367Z,13.20
2023-05-03T08:48:18.679Z,13.30
2023-05-03T08:50:45.514Z,13.30
2023-05-03T08:53:12.198Z,13.40
2023-05-03T08:55:38.919Z,13.30
2023-05-03T08:58:12.720Z,13.30
2023-05-03T09:00:41.578Z,13.40
2023-05-03T09:03:08.409Z,13.40
2023-05-03T09:05:38.674Z,13.40
2023-05-03T09:08:10.822Z,13.40
2023-05-03T09:10:39.764Z,13.50
2023-05-03T09:13:07.649Z,13.50
2023-05-03T09:15:35.554Z,13.50
2023-05-03T09:18:09.936Z,13.60
2023-05-03T09:20:38.363Z,13.50
2023-05-03T09:23:05.123Z,13.60
2023-05-03T09:25:45.874Z,13.70
2023-05-03T09:28:16.963Z,13.80
2023-05-03T09:30:44.717Z,13.80
2023-05-03T09:33:11.731Z,14.00
2023-05-03T09:35:39.074Z,14.10
2023-05-03T09:38:06.121Z,14.10
2023-05-03T09:40:32.891Z,14.10
2023-05-03T09:43:14.395Z,14.00
2023-05-03T09:45:41.163Z,14.10
2023-05-03T09:48:08.505Z,14.10
2023-05-03T09:50:36.605Z,14.10
2023-05-03T09:53:04.954Z,14.30
2023-05-03T09:55:39.126Z,14.30
2023-05-03T09:58:06.777Z,14.30
2023-05-03T10:00:38.351Z,14.40
2023-05-03T10:03:10.302Z,14.40
2023-05-03T10:05:49.460Z,14.50
2023-05-03T10:08:34.464Z,14.50
2023-05-03T10:11:04.441Z,14.50
2023-05-03T10:13:31.888Z,14.50
2023-05-03T10:16:42.258Z,14.60
2023-05-03T10:19:17.577Z,14.60
2023-05-03T10:22:07.566Z,14.40
2023-05-03T10:24:35.377Z,14.30
2023-05-03T10:27:02.700Z,14.50
2023-05-03T10:29:45.815Z,14.50
2023-05-03T10:32:29.703Z,14.60
2023-05-03T10:35:16.958Z,14.70
2023-05-03T10:37:45.515Z,14.60
2023-05-03T10:40:14.388Z,14.70
2023-05-03T10:42:46.323Z,14.80
2023-05-03T10:45:26.972Z,14.90
2023-05-03T10:48:12.041Z,14.90
2023-05-03T10:50:39.606Z,15.00
2023-05-03T10:53:06.566Z,15.10
2023-05-03T10:55:33.982Z,15.10
2023-05-03T10:58:01.187Z,15.10
2023-05-03T11:00:35.534Z,14.90
2023-05-03T11:03:21.654Z,15.00
2023-05-03T11:05:48.954Z,15.00
2023-05-03T11:08:17.886Z,15.10
2023-05-03T11:10:49.542Z,15.10
2023-05-03T11:13:16.497Z,15.10
2023-05-03T11:15:44.463Z,15.00
2023-05-03T11:18:12.039Z,15.10
2023-05-03T11:20:38.771Z,15.20
2023-05-03T11:23:07.320Z,15.30
2023-05-03T11:25:34.518Z,15.40
2023-05-03T11:28:02.087Z,15.50
2023-05-03T11:30:30.036Z,15.60
2023-05-03T11:32:56.762Z,15.70
2023-05-03T11:35:25.779Z,15.60
2023-05-03T11:37:53.870Z,15.70
2023-05-03T11:40:20.606Z,15.70
2023-05-03T11:42:55.932Z,15.80
2023-05-03T11:45:24.758Z,15.90
2023-05-03T11:47:52.395Z,15.80
2023-05-03T11:50:26.453Z,15.90
2023-05-03T11:52:53.223Z,15.90
2023-05-03T11:55:21.554Z,15.80
2023-05-03T11:57:48.190Z,15.90
2023-05-03T12:00:19.106Z,15.90
2023-05-03T12:02:48.885Z,16.00
2023-05-03T12:05:16.995Z,16.10
2023-05-03T12:07:44.787Z,16.20
2023-05-03T12:10:23.105Z,16.20
2023-05-03T12:12:56.826Z,16.40
2023-05-03T12:15:33.817Z,16.50
2023-05-03T12:18:04.666Z,16.40
2023-05-03T12:23:04.199Z,16.30
2023-05-03T12:25:33.794Z,16.40
2023-05-03T12:30:34.106Z,16.50
2023-05-03T12:33:04.305Z,16.60
2023-05-03T12:35:34.034Z,16.50
2023-05-03T12:38:03.824Z,16.60
2023-05-03T12:40:33.286Z,16.60
2023-05-03T12:43:01.673Z,16.70
2023-05-03T12:45:33.735Z,16.80
2023-05-03T12:48:01.407Z,16.90
2023-05-03T12:50:31.319Z,16.70
2023-05-03T12:53:02.336Z,16.80
2023-05-03T12:55:34.503Z,16.80
2023-05-03T13:00:36.491Z,16.70
2023-05-03T13:05:35.798Z,16.80
2023-05-03T13:08:09.273Z,16.80
2023-05-03T13:10:41.269Z,16.90
2023-05-03T13:13:09.180Z,17.10
2023-05-03T13:15:36.661Z,17.10
2023-05-03T13:18:07.118Z,17.10
2023-05-03T13:20:36.311Z,17.10
2023-05-03T13:23:04.165Z,17.30
2023-05-03T13:25:30.890Z,17.30
2023-05-03T13:27:57.540Z,17.30
2023-05-03T13:30:24.422Z,17.30
2023-05-03T13:32:51.101Z,17.40
2023-05-03T13:35:18.269Z,17.60
2023-05-03T13:37:45.086Z,17.40
2023-05-03T13:40:14.333Z,17.40
2023-05-03T13:42:41.463Z,17.50
2023-05-03T13:45:09.008Z,17.60
2023-05-03T13:48:04.706Z,17.60
2023-05-03T13:50:23.234Z,17.50
2023-05-03T13:52:49.842Z,17.60
2023-05-03T13:55:16.702Z,17.70
2023-05-03T13:57:43.870Z,17.70
2023-05-03T14:00:11.150Z,17.80
2023-05-03T14:02:37.825Z,17.80
2023-05-03T14:05:06.853Z,17.70
2023-05-03T14:07:34.758Z,17.80
2023-05-03T14:10:02.580Z,17.70
2023-05-03T14:12:29.598Z,17.90
2023-05-03T14:14:56.414Z,17.90
2023-05-03T14:17:23.786Z,17.80
2023-05-03T14:19:50.842Z,17.90
2023-05-03T14:22:17.460Z,17.70
2023-05-03T14:24:44.161Z,17.80
2023-05-03T14:27:10.738Z,17.80
2023-05-03T14:29:37.324Z,17.90
2023-05-03T14:32:04.818Z,17.90
2023-05-03T14:34:31.782Z,18.00
2023-05-03T14:36:58.404Z,17.90
2023-05-03T14:39:25.101Z,17.90
2023-05-03T14:41:51.714Z,18.00
2023-05-03T14:44:18.353Z,18.00
2023-05-03T14:46:45.184Z,18.00
2023-05-03T14:49:11.948Z,18.00
2023-05-03T14:51:38.605Z,18.10
2023-05-03T14:54:05.303Z,18.10
2023-05-03T14:56:32.263Z,18.20
2023-05-03T14:58:59.614Z,18.20
2023-05-03T15:01:27.045Z,18.20
2023-05-03T15:03:53.810Z,18.30
2023-05-03T15:06:25.385Z,18.30
2023-05-03T15:08:52.372Z,18.30
2023-05-03T15:11:18.978Z,18.20
2023-05-03T15:13:46.180Z,18.30
2023-05-03T15:16:13.006Z,18.30
2023-05-03T15:18:39.625Z,18.30
2023-05-03T15:21:07.372Z,18.20
2023-05-03T15:23:34.023Z,18.20
2023-05-03T15:26:01.415Z,18.10
2023-05-03T15:28:28.007Z,18.20
2023-05-03T15:30:54.757Z,18.30
2023-05-03T15:33:21.444Z,18.30
2023-05-03T15:35:48.102Z,18.40
2023-05-03T15:38:14.740Z,18.40
2023-05-03T15:40:41.322Z,18.40
2023-05-03T15:43:07.941Z,18.30
2023-05-03T15:45:35.753Z,18.30
2023-05-03T15:48:02.862Z,18.40
2023-05-03T15:50:30.065Z,18.40
2023-05-03T15:52:59.396Z,18.40
2023-05-03T15:55:27.232Z,18.30
2023-05-03T15:57:54.289Z,18.30
2023-05-03T16:00:22.916Z,18.20
2023-05-03T16:02:49.693Z,18.20
2023-05-03T16:05:17.605Z,18.20
2023-05-03T16:07:44.414Z,18.20
2023-05-03T16:10:11.187Z,18.10
2023-05-03T16:12:37.957Z,18.10
2023-05-03T16:15:05.337Z,18.20
2023-05-03T16:17:35.564Z,18.10
2023-05-03T16:20:05.538Z,18.10
2023-05-03T16:22:32.862Z,18.10
2023-05-03T16:24:59.533Z,18.10
2023-05-03T16:27:26.401Z,18.30
2023-05-03T16:29:54.157Z,18.30
2023-05-03T16:32:20.811Z,18.30
2023-05-03T16:34:49.779Z,18.20
2023-05-03T16:37:19.777Z,18.20
2023-05-03T16:39:46.439Z,18.30
2023-05-03T16:42:13.062Z,18.30
2023-05-03T16:44:39.670Z,18.30
2023-05-03T16:47:06.473Z,18.30
2023-05-03T16:49:34.488Z,18.30
2023-05-03T16:52:03.179Z,18.30
2023-05-03T16:54:30.087Z,18.30
2023-05-03T16:56:56.757Z,18.30
2023-05-03T16:59:23.551Z,18.20
2023-05-03T17:01:50.133Z,18.20
2023-05-03T17:04:16.758Z,18.20
2023-05-03T17:06:43.367Z,18.20
2023-05-03T17:09:10.381Z,17.90
2023-05-03T17:11:37.275Z,18.10
2023-05-03T17:14:03.851Z,18.10
2023-05-03T17:16:30.478Z,18.10
2023-05-03T17:18:57.153Z,18.20
2023-05-03T17:21:24.865Z,18.20
2023-05-03T17:23:51.588Z,18.00
2023-05-03T17:26:21.164Z,18.10
2023-05-03T17:28:48.455Z,18.00
2023-05-03T17:31:15.561Z,18.00
2023-05-03T17:33:42.155Z,17.90
2023-05-03T17:36:08.766Z,17.90
2023-05-03T17:38:36.025Z,18.00
2023-05-03T17:41:11.209Z,17.90
2023-05-03T17:43:39.201Z,17.80
2023-05-03T17:46:11.357Z,17.80
2023-05-03T17:48:39.572Z,17.80
2023-05-03T17:51:07.600Z,17.60
2023-05-03T17:53:34.800Z,17.70
2023-05-03T17:56:01.475Z,17.60
2023-05-03T17:58:28.166Z,17.70
2023-05-03T18:00:56.494Z,17.70
2023-05-03T18:03:23.986Z,17.60
2023-05-03T18:05:50.716Z,17.50
2023-05-03T18:08:17.380Z,17.50
2023-05-03T18:10:44.857Z,17.50
2023-05-03T18:13:12.630Z,17.60
2023-05-03T18:15:41.749Z,17.50
2023-05-03T18:18:09.266Z,17.50
2023-05-03T18:20:36.033Z,17.40
2023-05-03T18:23:05.838Z,17.40
2023-05-03T18:25:32.452Z,17.30
2023-05-03T18:28:00.331Z,17.30
2023-05-03T18:30:28.089Z,17.30
2023-05-03T18:32:58.540Z,17.20
2023-05-03T18:35:25.151Z,17.30
2023-05-03T18:37:53.277Z,17.20
2023-05-03T18:40:19.941Z,17.20
2023-05-03T18:42:46.668Z,17.20
2023-05-03T18:45:15.069Z,17.10
2023-05-03T18:47:42.165Z,17.10
2023-05-03T18:50:09.218Z,17.10
2023-05-03T18:52:36.090Z,17.00
2023-05-03T18:55:03.135Z,17.00
2023-05-03T18:57:29.771Z,17.00
2023-05-03T19:00:01.238Z,17.00
2023-05-03T19:02:31.148Z,17.00
2023-05-03T19:04:58.845Z,16.90
2023-05-03T19:07:25.613Z,16.90
2023-05-03T19:09:56.962Z,16.90
2023-05-03T19:12:23.795Z,16.90
2023-05-03T19:14:50.493Z,16.80
2023-05-03T19:17:17.139Z,16.80
2023-05-03T19:19:43.866Z,16.80
2023-05-03T19:22:10.605Z,16.70
2023-05-03T19:24:37.386Z,16.70
2023-05-03T19:27:04.682Z,16.70
2023-05-03T19:29:31.511Z,16.70
2023-05-03T19:31:58.164Z,16.50
2023-05-03T19:34:24.831Z,16.50
2023-05-03T19:36:51.468Z,16.50
2023-05-03T19:39:18.085Z,16.40
2023-05-03T19:41:44.707Z,16.40
2023-05-03T19:44:11.542Z,16.20
2023-05-03T19:46:38.468Z,16.10
2023-05-03T19:49:05.609Z,16.00
2023-05-03T19:51:33.092Z,16.00
2023-05-03T19:54:03.029Z,16.00
2023-05-03T19:56:29.622Z,15.90
2023-05-03T19:58:56.402Z,15.80
2023-05-03T20:01:23.644Z,15.80
2023-05-03T20:03:53.159Z,15.80
2023-05-03T20:06:20.087Z,15.80
2023-05-03T20:08:46.825Z,15.80
2023-05-03T20:11:13.518Z,15.70
2023-05-03T20:13:40.146Z,15.60
2023-05-03T20:16:08.132Z,15.60
2023-05-03T20:18:34.907Z,15.50
2023-05-03T20:21:01.937Z,15.50
2023-05-03T20:23:28.690Z,15.50
2023-05-03T20:25:55.349Z,15.50
2023-05-03T20:28:22.033Z,15.50
2023-05-03T20:30:48.722Z,15.40
2023-05-03T20:33:15.525Z,15.40
2023-05-03T20:35:42.432Z,15.40
2023-05-03T20:38:09.063Z,15.40
2023-05-03T20:40:35.735Z,15.20
2023-05-03T20:43:02.422Z,15.00
2023-05-03T20:45:29.186Z,14.80
2023-05-03T20:47:56.359Z,14.80
2023-05-03T20:50:23.001Z,14.80
2023-05-03T20:52:49.580Z,14.70
2023-05-03T20:55:16.215Z,14.60
2023-05-03T20:57:43.192Z,14.60
2023-05-03T21:00:14.723Z,14.50
2023-05-03T21:02:42.802Z,14.40
2023-05-03T21:05:10.840Z,14.50
2023-05-03T21:07:38.303Z,14.50
2023-05-03T21:10:07.120Z,14.50
2023-05-03T21:12:34.484Z,14.40
2023-05-03T21:15:01.410Z,14.30
2023-05-03T21:17:28.071Z,14.30
2023-05-03T21:19:54.708Z,14.30
2023-05-03T21:22:21.643Z,14.20
2023-05-03T21:24:48.263Z,14.30
2023-05-03T21:27:14.874Z,14.10
2023-05-03T21:29:41.572Z,14.10
2023-05-03T21:32:08.359Z,14.10
2023-05-03T21:34:35.033Z,14.10
2023-05-03T21:37:01.771Z,14.00
2023-05-03T21:39:28.706Z,13.90
2023-05-03T21:41:55.349Z,13.90
2023-05-03T21:44:21.921Z,13.90
2023-05-03T21:46:48.633Z,13.80
2023-05-03T21:49:15.775Z,13.90
2023-05-03T21:51:42.411Z,13.80
2023-05-03T21:54:08.961Z,13.80
2023-05-03T21:56:35.596Z,13.80
2023-05-03T21:59:02.167Z,13.70
2023-05-03T22:01:29.576Z,13.60
2023-05-03T22:03:56.569Z,13.70
2023-05-03T22:06:23.394Z,13.50
2023-05-03T22:08:49.971Z,13.40
2023-05-03T22:11:16.551Z,13.40
2023-05-03T22:13:58.677Z,13.30
2023-05-03T22:16:29.866Z,13.30
2023-05-03T22:18:56.584Z,13.30
2023-05-03T22:21:23.242Z,13.30
2023-05-03T22:23:49.844Z,13.20
2023-05-03T22:26:16.467Z,13.10
2023-05-03T22:28:43.105Z,13.00
2023-05-03T22:31:09.801Z,12.90
2023-05-03T22:33:36.637Z,12.90
2023-05-03T22:36:03.403Z,12.80
2023-05-03T22:38:30.105Z,12.80
2023-05-03T22:40:56.767Z,12.70
2023-05-03T22:43:23.378Z,12.60
2023-05-03T22:45:50.018Z,12.60
2023-05-03T22:48:16.642Z,12.60
2023-05-03T22:50:43.229Z,12.70
2023-05-03T22:53:09.825Z,12.70
2023-05-03T22:55:36.547Z,12.70
2023-05-03T22:58:03.150Z,12.60
2023-05-03T23:00:29.893Z,12.60
2023-05-03T23:02:56.533Z,12.70
2023-05-03T23:05:23.492Z,12.50
2023-05-03T23:07:50.287Z,12.40
2023-05-03T23:10:16.946Z,12.40
2023-05-03T23:12:43.596Z,12.30
2023-05-03T23:15:11.236Z,12.30
2023-05-03T23:17:37.890Z,12.20
2023-05-03T23:20:05.613Z,12.10
2023-05-03T23:22:32.487Z,12.10
2023-05-03T23:24:59.200Z,12.10
2023-05-03T23:27:25.975Z,12.10
2023-05-03T23:29:53.100Z,12.10
2023-05-03T23:32:20.495Z,12.10
2023-05-03T23:34:47.734Z,12.10
2023-05-03T23:37:14.330Z,12.00
2023-05-03T23:39:47.465Z,12.00
2023-05-03T23:42:14.068Z,11.90
2023-05-03T23:44:53.607Z,11.90
2023-05-03T23:47:21.747Z,11.90
2023-05-03T23:49:48.429Z,11.80
2023-05-03T23:52:16.847Z,11.70
2023-05-03T23:54:43.474Z,11.60
2023-05-03T23:57:10.398Z,11.60
2023-05-03T23:59:38.318Z,11.60
